sensor_id;sensor_type;location;lat;lon;timestamp;pressure;altitude;pressure_sealevel;temperature;humidity
35778;BME280;21899;42.662;23.316;2022-11-03T00:01:39;94954.19;;;15.80;43.18
35778;BME280;21899;42.662;23.316;2022-11-03T00:04:05;94957.28;;;15.78;43.17
35778;BME280;21899;42.662;23.316;2022-11-03T00:06:31;94961.56;;;15.76;43.62
35778;BME280;21899;42.662;23.316;2022-11-03T00:08:57;94956.53;;;15.78;43.73
35778;BME280;21899;42.662;23.316;2022-11-03T00:11:23;94962.66;;;15.82;43.91
35778;BME280;21899;42.662;23.316;2022-11-03T00:13:48;94959.22;;;15.78;44.89
35778;BME280;21899;42.662;23.316;2022-11-03T00:16:14;94961.16;;;15.77;45.21
35778;BME280;21899;42.662;23.316;2022-11-03T00:18:39;94971.91;;;15.81;45.33
35778;BME280;21899;42.662;23.316;2022-11-03T00:21:08;94962.28;;;15.80;45.65
35778;BME280;21899;42.662;23.316;2022-11-03T00:23:37;94962.28;;;15.80;45.97
35778;BME280;21899;42.662;23.316;2022-11-03T00:28:32;94964.59;;;15.81;46.49
35778;BME280;21899;42.662;23.316;2022-11-03T00:30:58;94959.59;;;15.80;46.79
35778;BME280;21899;42.662;23.316;2022-11-03T00:33:23;94966.13;;;15.79;46.78
35778;BME280;21899;42.662;23.316;2022-11-03T00:35:56;94956.94;;;15.76;47.14
35778;BME280;21899;42.662;23.316;2022-11-03T00:38:22;94961.91;;;15.78;47.22
35778;BME280;21899;42.662;23.316;2022-11-03T00:40:57;94964.66;;;15.74;47.42
35778;BME280;21899;42.662;23.316;2022-11-03T00:43:23;94961.56;;;15.76;47.33
35778;BME280;21899;42.662;23.316;2022-11-03T00:45:49;94966.56;;;15.74;47.61
35778;BME280;21899;42.662;23.316;2022-11-03T00:48:14;94964.25;;;15.76;47.67
35778;BME280;21899;42.662;23.316;2022-11-03T00:53:40;94966.16;;;15.75;47.31
35778;BME280;21899;42.662;23.316;2022-11-03T00:56:07;94971.19;;;15.77;47.46
35778;BME280;21899;42.662;23.316;2022-11-03T00:58:33;94968.94;;;15.72;47.57
35778;BME280;21899;42.662;23.316;2022-11-03T01:01:00;94968.25;;;15.60;47.99
35778;BME280;21899;42.662;23.316;2022-11-03T01:03:25;94967.59;;;15.53;48.28
35778;BME280;21899;42.662;23.316;2022-11-03T01:05:50;94969.50;;;15.52;48.32
35778;BME280;21899;42.662;23.316;2022-11-03T01:08:34;94971.44;;;15.52;48.30
35778;BME280;21899;42.662;23.316;2022-11-03T01:11:07;94977.72;;;15.42;48.88
35778;BME280;21899;42.662;23.316;2022-11-03T01:13:51;94965.44;;;15.30;49.44
35778;BME280;21899;42.662;23.316;2022-11-03T01:16:17;94969.03;;;15.20;50.19
35778;BME280;21899;42.662;23.316;2022-11-03T01:18:42;94968.31;;;15.13;50.48
35778;BME280;21899;42.662;23.316;2022-11-03T01:21:07;94973.72;;;15.09;50.90
35778;BME280;21899;42.662;23.316;2022-11-03T01:23:35;94966.00;;;15.11;50.92
35778;BME280;21899;42.662;23.316;2022-11-03T01:26:07;94964.94;;;15.05;51.15
35778;BME280;21899;42.662;23.316;2022-11-03T01:28:33;94963.34;;;15.08;51.05
35778;BME280;21899;42.662;23.316;2022-11-03T01:31:05;94967.94;;;15.11;51.26
35778;BME280;21899;42.662;23.316;2022-11-03T01:33:31;94973.44;;;15.00;51.75
35778;BME280;21899;42.662;23.316;2022-11-03T01:35:57;94971.06;;;15.06;51.55
35778;BME280;21899;42.662;23.316;2022-11-03T01:38:22;94968.75;;;15.08;51.75
35778;BME280;21899;42.662;23.316;2022-11-03T01:40:47;94964.84;;;15.12;51.36
35778;BME280;21899;42.662;23.316;2022-11-03T01:43:13;94970.22;;;15.12;51.60
35778;BME280;21899;42.662;23.316;2022-11-03T01:45:38;94974.06;;;15.18;51.32
35778;BME280;21899;42.662;23.316;2022-11-03T01:48:04;94975.63;;;15.12;51.51
35778;BME280;21899;42.662;23.316;2022-11-03T01:50:29;94978.72;;;15.11;52.21
35778;BME280;21899;42.662;23.316;2022-11-03T01:52:55;94971.09;;;15.02;52.90
35778;BME280;21899;42.662;23.316;2022-11-03T01:55:23;94973.41;;;15.04;52.76
35778;BME280;21899;42.662;23.316;2022-11-03T01:57:58;94972.69;;;14.96;53.59
35778;BME280;21899;42.662;23.316;2022-11-03T02:00:25;94981.16;;;14.98;53.63
35778;BME280;21899;42.662;23.316;2022-11-03T02:02:50;94975.03;;;14.91;54.44
35778;BME280;21899;42.662;23.316;2022-11-03T02:05:15;94988.59;;;14.80;55.95
35778;BME280;21899;42.662;23.316;2022-11-03T02:08:29;94989.03;;;14.75;56.83
35778;BME280;21899;42.662;23.316;2022-11-03T02:10:27;94984.44;;;14.72;57.67
35778;BME280;21899;42.662;23.316;2022-11-03T02:12:53;94987.16;;;14.69;58.75
35778;BME280;21899;42.662;23.316;2022-11-03T02:15:18;94982.56;;;14.66;58.98
35778;BME280;21899;42.662;23.316;2022-11-03T02:17:48;94981.41;;;14.63;59.29
35778;BME280;21899;42.662;23.316;2022-11-03T02:20:18;94982.16;;;14.64;59.36
35778;BME280;21899;42.662;23.316;2022-11-03T02:22:59;94982.97;;;14.57;59.84
35778;BME280;21899;42.662;23.316;2022-11-03T02:27:53;94981.41;;;14.63;59.87
35778;BME280;21899;42.662;23.316;2022-11-03T02:30:19;94980.69;;;14.52;60.03
35778;BME280;21899;42.662;23.316;2022-11-03T02:32:51;94974.16;;;14.53;60.42
35778;BME280;21899;42.662;23.316;2022-11-03T02:35:33;94972.63;;;14.52;60.45
35778;BME280;21899;42.662;23.316;2022-11-03T02:38:00;94975.34;;;14.49;60.43
35778;BME280;21899;42.662;23.316;2022-11-03T02:40:29;94981.50;;;14.49;60.93
35778;BME280;21899;42.662;23.316;2022-11-03T02:42:55;94984.19;;;14.53;60.84
35778;BME280;21899;42.662;23.316;2022-11-03T02:45:23;94980.69;;;14.52;60.66
35778;BME280;21899;42.662;23.316;2022-11-03T02:47:49;94976.84;;;14.50;61.19
35778;BME280;21899;42.662;23.316;2022-11-03T02:50:17;94971.88;;;14.48;61.09
35778;BME280;21899;42.662;23.316;2022-11-03T02:52:47;94981.16;;;14.40;61.25
35778;BME280;21899;42.662;23.316;2022-11-03T03:00:25;94977.72;;;14.36;61.64
35778;BME280;21899;42.662;23.316;2022-11-03T03:03:34;94987.72;;;14.39;61.16
35778;BME280;21899;42.662;23.316;2022-11-03T03:05:40;94979.63;;;14.39;61.31
35778;BME280;21899;42.662;23.316;2022-11-03T03:08:06;94979.25;;;14.37;61.08
35778;BME280;21899;42.662;23.316;2022-11-03T03:10:35;94977.31;;;14.41;60.30
35778;BME280;21899;42.662;23.316;2022-11-03T03:13:02;94979.22;;;14.44;60.22
35778;BME280;21899;42.662;23.316;2022-11-03T03:18:26;94980.03;;;14.38;59.97
35778;BME280;21899;42.662;23.316;2022-11-03T03:23:22;94974.63;;;14.41;59.98
35778;BME280;21899;42.662;23.316;2022-11-03T03:25:59;94973.09;;;14.33;60.09
35778;BME280;21899;42.662;23.316;2022-11-03T03:30:59;94972.34;;;14.32;60.61
35778;BME280;21899;42.662;23.316;2022-11-03T03:33:25;94978.13;;;14.31;60.76
35778;BME280;21899;42.662;23.316;2022-11-03T03:35:51;94973.91;;;14.23;61.06
35778;BME280;21899;42.662;23.316;2022-11-03T03:38:22;94978.94;;;14.17;61.18
35778;BME280;21899;42.662;23.316;2022-11-03T03:40:50;94975.88;;;14.15;61.82
35778;BME280;21899;42.662;23.316;2022-11-03T03:43:16;94973.19;;;14.12;61.88
35778;BME280;21899;42.662;23.316;2022-11-03T03:45:42;94980.16;;;14.06;62.53
35778;BME280;21899;42.662;23.316;2022-11-03T03:48:09;94984.38;;;14.07;62.47
35778;BME280;21899;42.662;23.316;2022-11-03T03:50:35;94991.31;;;14.04;62.69
35778;BME280;21899;42.662;23.316;2022-11-03T03:53:02;94980.16;;;14.06;62.40
35778;BME280;21899;42.662;23.316;2022-11-03T03:55:35;94979.38;;;14.05;62.98
35778;BME280;21899;42.662;23.316;2022-11-03T03:58:01;94979.78;;;14.00;63.39
35778;BME280;21899;42.662;23.316;2022-11-03T04:00:26;94977.88;;;14.01;63.19
35778;BME280;21899;42.662;23.316;2022-11-03T04:02:52;94975.19;;;13.94;64.14
35778;BME280;21899;42.662;23.316;2022-11-03T04:05:20;94976.00;;;13.87;64.54
35778;BME280;21899;42.662;23.316;2022-11-03T04:07:45;94980.59;;;13.83;65.03
35778;BME280;21899;42.662;23.316;2022-11-03T04:10:18;94987.53;;;13.81;65.39
35778;BME280;21899;42.662;23.316;2022-11-03T04:12:44;94989.13;;;13.75;65.59
35778;BME280;21899;42.662;23.316;2022-11-03T04:15:28;94994.50;;;13.75;65.67
35778;BME280;21899;42.662;23.316;2022-11-03T04:18:12;94986.44;;;13.68;65.40
35778;BME280;21899;42.662;23.316;2022-11-03T04:21:11;94981.44;;;13.63;65.93
35778;BME280;21899;42.662;23.316;2022-11-03T04:23:55;94983.75;;;13.57;66.43
35778;BME280;21899;42.662;23.316;2022-11-03T04:26:20;94983.78;;;13.54;66.63
35778;BME280;21899;42.662;23.316;2022-11-03T04:28:49;94981.47;;;13.52;66.57
35778;BME280;21899;42.662;23.316;2022-11-03T04:31:15;94978.03;;;13.48;66.67
35778;BME280;21899;42.662;23.316;2022-11-03T04:33:41;94978.81;;;13.38;67.23
35778;BME280;21899;42.662;23.316;2022-11-03T04:36:19;94983.03;;;13.43;67.26
35778;BME280;21899;42.662;23.316;2022-11-03T04:38:46;94980.34;;;13.36;67.71
35778;BME280;21899;42.662;23.316;2022-11-03T04:41:13;94978.44;;;13.36;67.59
35778;BME280;21899;42.662;23.316;2022-11-03T04:43:39;94976.13;;;13.35;67.67
35778;BME280;21899;42.662;23.316;2022-11-03T04:46:07;94975.38;;;13.31;68.00
35778;BME280;21899;42.662;23.316;2022-11-03T04:48:34;94975.00;;;13.22;68.89
35778;BME280;21899;42.662;23.316;2022-11-03T04:50:59;94979.59;;;13.18;68.81
35778;BME280;21899;42.662;23.316;2022-11-03T04:53:30;94972.72;;;13.17;69.26
35778;BME280;21899;42.662;23.316;2022-11-03T04:55:56;94981.91;;;13.16;69.23
35778;BME280;21899;42.662;23.316;2022-11-03T04:58:26;94971.94;;;13.16;69.78
35778;BME280;21899;42.662;23.316;2022-11-03T05:00:53;94977.69;;;13.18;70.02
35778;BME280;21899;42.662;23.316;2022-11-03T05:03:21;94986.53;;;13.22;69.83
35778;BME280;21899;42.662;23.316;2022-11-03T05:05:47;94985.00;;;13.25;69.87
35778;BME280;21899;42.662;23.316;2022-11-03T05:08:12;94982.28;;;13.25;70.36
35778;BME280;21899;42.662;23.316;2022-11-03T05:10:40;94982.28;;;13.21;70.29
35778;BME280;21899;42.662;23.316;2022-11-03T05:13:08;94992.66;;;13.19;70.65
35778;BME280;21899;42.662;23.316;2022-11-03T05:15:34;94988.06;;;13.20;70.69
35778;BME280;21899;42.662;23.316;2022-11-03T05:18:00;94990.34;;;13.18;71.14
35778;BME280;21899;42.662;23.316;2022-11-03T05:20:29;94988.06;;;13.20;71.38
35778;BME280;21899;42.662;23.316;2022-11-03T05:22:54;94985.75;;;13.22;71.66
35778;BME280;21899;42.662;23.316;2022-11-03T05:28:29;94998.03;;;13.30;71.44
35778;BME280;21899;42.662;23.316;2022-11-03T05:30:53;94993.81;;;13.29;71.50
35778;BME280;21899;42.662;23.316;2022-11-03T05:35:50;95009.53;;;13.41;70.88
35778;BME280;21899;42.662;23.316;2022-11-03T05:38:15;95001.84;;;13.43;71.20
35778;BME280;21899;42.662;23.316;2022-11-03T05:40:43;95012.22;;;13.55;70.77
35778;BME280;21899;42.662;23.316;2022-11-03T05:43:09;95001.84;;;13.53;70.28
35778;BME280;21899;42.662;23.316;2022-11-03T05:45:36;95015.25;;;13.64;70.12
35778;BME280;21899;42.662;23.316;2022-11-03T05:48:02;95019.47;;;13.72;69.72
35778;BME280;21899;42.662;23.316;2022-11-03T05:50:32;95027.91;;;13.74;69.78
35778;BME280;21899;42.662;23.316;2022-11-03T05:53:24;95021.00;;;13.80;69.74
35778;BME280;21899;42.662;23.316;2022-11-03T05:55:43;95032.88;;;13.89;69.40
35778;BME280;21899;42.662;23.316;2022-11-03T05:58:28;95037.88;;;13.98;69.18
35778;BME280;21899;42.662;23.316;2022-11-03T06:00:54;95036.28;;;14.04;68.58
35778;BME280;21899;42.662;23.316;2022-11-03T06:03:26;95042.41;;;14.11;68.81
35778;BME280;21899;42.662;23.316;2022-11-03T06:05:52;95039.31;;;14.20;68.29
35778;BME280;21899;42.662;23.316;2022-11-03T06:08:18;95047.78;;;14.15;68.65
35778;BME280;21899;42.662;23.316;2022-11-03T06:10:45;95042.78;;;14.17;68.12
35778;BME280;21899;42.662;23.316;2022-11-03T06:13:13;95044.69;;;14.27;67.79
35778;BME280;21899;42.662;23.316;2022-11-03T06:15:41;95047.34;;;14.41;67.33
35778;BME280;21899;42.662;23.316;2022-11-03T06:18:14;95053.81;;;14.58;66.29
35778;BME280;21899;42.662;23.316;2022-11-03T06:20:40;95047.53;;;14.71;65.90
35778;BME280;21899;42.662;23.316;2022-11-03T06:23:07;95050.94;;;14.86;65.22
35778;BME280;21899;42.662;23.316;2022-11-03T06:25:36;95053.56;;;14.93;64.50
35778;BME280;21899;42.662;23.316;2022-11-03T06:28:03;95057.47;;;14.88;64.63
35778;BME280;21899;42.662;23.316;2022-11-03T06:30:33;95063.59;;;14.92;64.42
35778;BME280;21899;42.662;23.316;2022-11-03T06:35:42;95069.72;;;15.00;63.97
35778;BME280;21899;42.662;23.316;2022-11-03T06:38:18;95066.16;;;15.13;63.44
35778;BME280;21899;42.662;23.316;2022-11-03T06:40:46;95067.63;;;15.21;62.97
35778;BME280;21899;42.662;23.316;2022-11-03T06:45:54;95067.84;;;15.48;61.95
35778;BME280;21899;42.662;23.316;2022-11-03T06:48:25;95069.56;;;15.68;60.64
35778;BME280;21899;42.662;23.316;2022-11-03T06:50:51;95071.50;;;15.72;60.72
35778;BME280;21899;42.662;23.316;2022-11-03T06:53:22;95071.13;;;15.70;60.52
35778;BME280;21899;42.662;23.316;2022-11-03T06:55:48;95071.53;;;15.64;60.57
35778;BME280;21899;42.662;23.316;2022-11-03T06:58:14;95064.53;;;15.71;60.40
35778;BME280;21899;42.662;23.316;2022-11-03T07:00:41;95072.16;;;15.83;60.19
35778;BME280;21899;42.662;23.316;2022-11-03T07:03:23;95066.53;;;16.04;59.24
35778;BME280;21899;42.662;23.316;2022-11-03T07:05:50;95061.63;;;15.92;59.28
35778;BME280;21899;42.662;23.316;2022-11-03T07:08:27;95061.34;;;15.83;59.95
35778;BME280;21899;42.662;23.316;2022-11-03T07:11:03;95056.53;;;16.01;59.31
35778;BME280;21899;42.662;23.316;2022-11-03T07:13:31;95052.56;;;16.12;57.91
35778;BME280;21899;42.662;23.316;2022-11-03T07:15:58;95051.06;;;16.08;58.32
35778;BME280;21899;42.662;23.316;2022-11-03T07:18:24;95056.38;;;16.15;57.94
35778;BME280;21899;42.662;23.316;2022-11-03T07:20:51;95050.06;;;16.25;57.38
35778;BME280;21899;42.662;23.316;2022-11-03T07:23:21;95055.69;;;16.41;56.91
35778;BME280;21899;42.662;23.316;2022-11-03T07:25:49;95054.47;;;16.49;56.16
35778;BME280;21899;42.662;23.316;2022-11-03T07:28:17;95052.75;;;16.62;55.48
35778;BME280;21899;42.662;23.316;2022-11-03T07:30:42;95049.28;;;16.61;55.95
35778;BME280;21899;42.662;23.316;2022-11-03T07:33:09;95048.59;;;16.54;56.25
35778;BME280;21899;42.662;23.316;2022-11-03T07:35:45;95057.94;;;16.76;55.82
35778;BME280;21899;42.662;23.316;2022-11-03T07:38:18;95052.22;;;16.74;55.25
35778;BME280;21899;42.662;23.316;2022-11-03T07:40:44;95056.34;;;16.82;54.87
35778;BME280;21899;42.662;23.316;2022-11-03T07:43:14;95047.41;;;16.85;54.54
35778;BME280;21899;42.662;23.316;2022-11-03T07:48:18;95055.53;;;16.85;53.52
35778;BME280;21899;42.662;23.316;2022-11-03T07:50:45;95057.50;;;16.81;54.28
35778;BME280;21899;42.662;23.316;2022-11-03T07:53:21;95053.38;;;16.73;55.01
35778;BME280;21899;42.662;23.316;2022-11-03T07:55:49;95047.97;;;16.73;55.54
35778;BME280;21899;42.662;23.316;2022-11-03T07:58:24;95048.19;;;16.55;56.70
35778;BME280;21899;42.662;23.316;2022-11-03T08:00:53;95041.72;;;16.76;56.45
35778;BME280;21899;42.662;23.316;2022-11-03T08:03:43;95041.72;;;16.76;56.17
35778;BME280;21899;42.662;23.316;2022-11-03T08:06:07;95040.03;;;16.89;55.52
35778;BME280;21899;42.662;23.316;2022-11-03T08:08:32;95036.22;;;16.83;55.53
35778;BME280;21899;42.662;23.316;2022-11-03T08:10:57;95032.84;;;16.79;55.64
35778;BME280;21899;42.662;23.316;2022-11-03T08:13:23;95028.34;;;16.96;55.34
35778;BME280;21899;42.662;23.316;2022-11-03T08:15:48;95023.03;;;17.15;54.45
35778;BME280;21899;42.662;23.316;2022-11-03T08:18:13;95027.91;;;17.24;53.63
35778;BME280;21899;42.662;23.316;2022-11-03T08:20:38;95016.56;;;17.06;54.21
35778;BME280;21899;42.662;23.316;2022-11-03T08:23:04;95020.59;;;16.94;54.04
35778;BME280;21899;42.662;23.316;2022-11-03T08:25:29;95024.19;;;17.14;53.00
35778;BME280;21899;42.662;23.316;2022-11-03T08:27:55;95014.72;;;17.26;52.55
35778;BME280;21899;42.662;23.316;2022-11-03T08:30:20;95020.31;;;17.15;52.83
35778;BME280;21899;42.662;23.316;2022-11-03T08:32:45;95005.44;;;17.27;52.22
35778;BME280;21899;42.662;23.316;2022-11-03T08:35:11;95003.09;;;17.29;52.33
35778;BME280;21899;42.662;23.316;2022-11-03T08:37:36;95006.91;;;17.31;52.76
35778;BME280;21899;42.662;23.316;2022-11-03T08:40:01;95007.72;;;17.28;53.50
35778;BME280;21899;42.662;23.316;2022-11-03T08:42:28;95013.78;;;17.36;53.31
35778;BME280;21899;42.662;23.316;2022-11-03T08:44:53;95016.13;;;17.34;53.21
35778;BME280;21899;42.662;23.316;2022-11-03T08:47:19;95013.38;;;17.37;53.34
35778;BME280;21899;42.662;23.316;2022-11-03T08:49:44;95022.66;;;17.36;53.42
35778;BME280;21899;42.662;23.316;2022-11-03T08:52:09;95009.09;;;17.40;53.02
35778;BME280;21899;42.662;23.316;2022-11-03T08:54:34;95014.41;;;17.47;51.78
35778;BME280;21899;42.662;23.316;2022-11-03T08:56:59;95010.69;;;17.60;51.80
35778;BME280;21899;42.662;23.316;2022-11-03T08:59:25;95016.22;;;17.76;51.68
35778;BME280;21899;42.662;23.316;2022-11-03T09:01:50;95011.41;;;17.84;51.20
35778;BME280;21899;42.662;23.316;2022-11-03T09:04:15;95013.03;;;17.81;51.61
35778;BME280;21899;42.662;23.316;2022-11-03T09:06:41;95010.66;;;17.83;51.81
35778;BME280;21899;42.662;23.316;2022-11-03T09:09:06;95009.91;;;17.83;51.04
35778;BME280;21899;42.662;23.316;2022-11-03T09:11:31;95011.28;;;17.91;50.55
35778;BME280;21899;42.662;23.316;2022-11-03T09:13:57;95004.44;;;18.06;50.23
35778;BME280;21899;42.662;23.316;2022-11-03T09:16:22;95008.41;;;18.21;49.67
35778;BME280;21899;42.662;23.316;2022-11-03T09:18:47;95002.75;;;18.32;49.01
35778;BME280;21899;42.662;23.316;2022-11-03T09:21:12;94996.47;;;18.35;48.58
35778;BME280;21899;42.662;23.316;2022-11-03T09:23:38;94991.91;;;18.32;48.70
35778;BME280;21899;42.662;23.316;2022-11-03T09:26:04;94993.16;;;18.47;48.24
35778;BME280;21899;42.662;23.316;2022-11-03T09:28:30;94983.69;;;18.55;48.08
35778;BME280;21899;42.662;23.316;2022-11-03T09:30:56;94983.41;;;18.30;48.65
35778;BME280;21899;42.662;23.316;2022-11-03T09:33:21;94979.34;;;18.41;48.60
35778;BME280;21899;42.662;23.316;2022-11-03T09:35:46;94982.03;;;18.61;47.79
35778;BME280;21899;42.662;23.316;2022-11-03T09:38:11;94969.16;;;18.81;47.16
35778;BME280;21899;42.662;23.316;2022-11-03T09:40:37;94971.22;;;18.93;46.85
35778;BME280;21899;42.662;23.316;2022-11-03T09:43:02;94962.41;;;19.05;46.76
35778;BME280;21899;42.662;23.316;2022-11-03T09:45:27;94972.41;;;19.24;45.98
35778;BME280;21899;42.662;23.316;2022-11-03T09:47:53;94964.13;;;19.31;45.62
35778;BME280;21899;42.662;23.316;2022-11-03T09:50:18;94957.16;;;19.46;45.09
35778;BME280;21899;42.662;23.316;2022-11-03T09:52:45;94962.31;;;19.57;44.99
35778;BME280;21899;42.662;23.316;2022-11-03T09:55:14;94957.50;;;19.77;44.23
35778;BME280;21899;42.662;23.316;2022-11-03T09:57:40;94959.94;;;19.87;44.00
35778;BME280;21899;42.662;23.316;2022-11-03T10:00:06;94946.16;;;19.94;44.09
35778;BME280;21899;42.662;23.316;2022-11-03T10:02:34;94951.09;;;20.12;43.70
35778;BME280;21899;42.662;23.316;2022-11-03T10:05:00;94947.59;;;20.27;43.07
35778;BME280;21899;42.662;23.316;2022-11-03T10:07:26;94943.03;;;20.37;42.61
35778;BME280;21899;42.662;23.316;2022-11-03T10:09:53;94940.50;;;20.30;41.90
35778;BME280;21899;42.662;23.316;2022-11-03T10:12:19;94935.41;;;20.19;42.46
35778;BME280;21899;42.662;23.316;2022-11-03T10:14:45;94933.91;;;20.02;42.69
35778;BME280;21899;42.662;23.316;2022-11-03T10:17:17;94924.41;;;20.23;42.47
35778;BME280;21899;42.662;23.316;2022-11-03T10:19:47;94920.41;;;20.27;41.93
35778;BME280;21899;42.662;23.316;2022-11-03T10:22:13;94919.63;;;19.98;42.83
35778;BME280;21899;42.662;23.316;2022-11-03T10:24:39;94924.09;;;19.92;43.01
35778;BME280;21899;42.662;23.316;2022-11-03T10:27:05;94912.88;;;19.90;42.75
35778;BME280;21899;42.662;23.316;2022-11-03T10:29:43;94905.66;;;19.71;42.72
35778;BME280;21899;42.662;23.316;2022-11-03T10:32:10;94910.25;;;19.74;42.64
35778;BME280;21899;42.662;23.316;2022-11-03T10:34:52;94896.63;;;19.62;42.54
35778;BME280;21899;42.662;23.316;2022-11-03T10:37:21;94899.97;;;19.53;42.71
35778;BME280;21899;42.662;23.316;2022-11-03T10:39:53;94892.03;;;19.59;42.19
35778;BME280;21899;42.662;23.316;2022-11-03T10:44:44;94882.13;;;19.52;41.63
35778;BME280;21899;42.662;23.316;2022-11-03T10:47:20;94885.69;;;19.49;41.46
35778;BME280;21899;42.662;23.316;2022-11-03T10:49:46;94873.84;;;19.43;39.17
35778;BME280;21899;42.662;23.316;2022-11-03T10:52:18;94867.94;;;19.61;38.59
35778;BME280;21899;42.662;23.316;2022-11-03T10:54:44;94866.88;;;19.71;37.66
35778;BME280;21899;42.662;23.316;2022-11-03T10:57:10;94863.88;;;19.81;36.74
35778;BME280;21899;42.662;23.316;2022-11-03T10:59:35;94856.94;;;19.93;34.95
35778;BME280;21899;42.662;23.316;2022-11-03T11:02:02;94861.75;;;20.01;35.72
35778;BME280;21899;42.662;23.316;2022-11-03T11:04:28;94853.47;;;20.05;36.32
35778;BME280;21899;42.662;23.316;2022-11-03T11:06:55;94843.81;;;20.16;35.74
35778;BME280;21899;42.662;23.316;2022-11-03T11:09:21;94843.94;;;20.13;35.39
35778;BME280;21899;42.662;23.316;2022-11-03T11:11:59;94842.31;;;20.15;36.41
35778;BME280;21899;42.662;23.316;2022-11-03T11:16:52;94840.47;;;20.25;35.37
35778;BME280;21899;42.662;23.316;2022-11-03T11:19:18;94835.34;;;20.27;34.80
35778;BME280;21899;42.662;23.316;2022-11-03T11:24:09;94830.47;;;20.22;34.10
35778;BME280;21899;42.662;23.316;2022-11-03T11:26:35;94818.94;;;20.30;34.55
35778;BME280;21899;42.662;23.316;2022-11-03T11:31:32;94818.28;;;20.39;35.16
35778;BME280;21899;42.662;23.316;2022-11-03T11:36:32;94816.53;;;20.57;35.57
35778;BME280;21899;42.662;23.316;2022-11-03T11:38:58;94806.06;;;20.68;35.27
35778;BME280;21899;42.662;23.316;2022-11-03T11:42:03;94807.13;;;20.71;34.32
35778;BME280;21899;42.662;23.316;2022-11-03T11:47:58;94805.44;;;20.52;35.48
35778;BME280;21899;42.662;23.316;2022-11-03T11:50:01;94794.22;;;20.50;35.67
35778;BME280;21899;42.662;23.316;2022-11-03T11:52:46;94786.63;;;20.57;35.58
35778;BME280;21899;42.662;23.316;2022-11-03T11:55:19;94785.50;;;20.67;34.63
35778;BME280;21899;42.662;23.316;2022-11-03T11:57:49;94781.66;;;20.77;34.36
35778;BME280;21899;42.662;23.316;2022-11-03T12:00:21;94784.16;;;20.85;34.63
35778;BME280;21899;42.662;23.316;2022-11-03T12:02:48;94784.16;;;20.85;33.97
35778;BME280;21899;42.662;23.316;2022-11-03T12:05:20;94776.78;;;20.72;33.97
35778;BME280;21899;42.662;23.316;2022-11-03T12:07:46;94784.19;;;20.72;33.92
35778;BME280;21899;42.662;23.316;2022-11-03T12:10:19;94775.81;;;20.79;33.55
35778;BME280;21899;42.662;23.316;2022-11-03T12:12:46;94773.31;;;20.59;33.56
35778;BME280;21899;42.662;23.316;2022-11-03T12:17:56;94765.09;;;20.50;33.38
35778;BME280;21899;42.662;23.316;2022-11-03T12:20:34;94762.66;;;20.65;33.61
35778;BME280;21899;42.662;23.316;2022-11-03T12:23:00;94757.56;;;20.67;33.94
35778;BME280;21899;42.662;23.316;2022-11-03T12:25:32;94762.31;;;20.76;34.47
35778;BME280;21899;42.662;23.316;2022-11-03T12:27:58;94756.88;;;20.76;34.64
35778;BME280;21899;42.662;23.316;2022-11-03T12:30:23;94748.06;;;20.71;34.73
35778;BME280;21899;42.662;23.316;2022-11-03T12:32:48;94751.66;;;20.68;35.05
35778;BME280;21899;42.662;23.316;2022-11-03T12:35:15;94747.19;;;20.74;35.15
35778;BME280;21899;42.662;23.316;2022-11-03T12:37:41;94742.28;;;20.69;35.26
35778;BME280;21899;42.662;23.316;2022-11-03T12:40:06;94736.28;;;20.74;35.23
35778;BME280;21899;42.662;23.316;2022-11-03T12:42:32;94739.13;;;20.71;35.05
35778;BME280;21899;42.662;23.316;2022-11-03T12:44:57;94740.66;;;20.72;35.08
35778;BME280;21899;42.662;23.316;2022-11-03T12:47:22;94740.34;;;20.70;34.81
35778;BME280;21899;42.662;23.316;2022-11-03T12:49:47;94731.97;;;20.64;34.85
35778;BME280;21899;42.662;23.316;2022-11-03T12:52:13;94735.41;;;20.56;34.97
35778;BME280;21899;42.662;23.316;2022-11-03T12:54:38;94729.31;;;20.52;34.87
35778;BME280;21899;42.662;23.316;2022-11-03T12:57:04;94733.75;;;20.58;34.62
35778;BME280;21899;42.662;23.316;2022-11-03T12:59:29;94731.34;;;20.60;34.69
35778;BME280;21899;42.662;23.316;2022-11-03T13:01:54;94726.09;;;20.66;34.68
35778;BME280;21899;42.662;23.316;2022-11-03T13:04:19;94725.78;;;20.64;34.68
35778;BME280;21899;42.662;23.316;2022-11-03T13:06:45;94728.97;;;20.62;34.56
35778;BME280;21899;42.662;23.316;2022-11-03T13:09:10;94719.69;;;20.60;34.58
35778;BME280;21899;42.662;23.316;2022-11-03T13:11:35;94714.03;;;20.67;34.41
35778;BME280;21899;42.662;23.316;2022-11-03T13:14:39;94709.34;;;20.67;34.65
35778;BME280;21899;42.662;23.316;2022-11-03T13:17:04;94713.69;;;20.65;34.59
35778;BME280;21899;42.662;23.316;2022-11-03T13:19:30;94707.81;;;20.66;34.62
35778;BME280;21899;42.662;23.316;2022-11-03T13:21:55;94703.91;;;20.67;34.69
35778;BME280;21899;42.662;23.316;2022-11-03T13:24:20;94704.03;;;20.64;34.86
35778;BME280;21899;42.662;23.316;2022-11-03T13:26:45;94708.06;;;20.59;35.24
35778;BME280;21899;42.662;23.316;2022-11-03T13:29:11;94708.38;;;20.61;34.86
35778;BME280;21899;42.662;23.316;2022-11-03T13:31:36;94701.88;;;20.59;34.93
35778;BME280;21899;42.662;23.316;2022-11-03T13:34:01;94708.63;;;20.54;34.99
35778;BME280;21899;42.662;23.316;2022-11-03T13:36:38;94702.66;;;20.47;35.07
35778;BME280;21899;42.662;23.316;2022-11-03T13:39:04;94704.16;;;20.48;34.97
35778;BME280;21899;42.662;23.316;2022-11-03T13:41:29;94702.88;;;20.52;34.93
35778;BME280;21899;42.662;23.316;2022-11-03T13:43:54;94698.72;;;20.60;34.81
35778;BME280;21899;42.662;23.316;2022-11-03T13:46:19;94699.34;;;20.64;34.84
35778;BME280;21899;42.662;23.316;2022-11-03T13:48:45;94698.47;;;20.67;34.68